Time;durP1;ratioP1;P1;durP2;ratioP2;P2;SDS_P1;SDS_P2;PMS_P1;PMS_P2;Temp;Humidity;BMP_temperature;BMP_pressure;BME280_temperature;BME280_humidity;BME280_pressure;Samples;Min_cycle;Max_cycle;Signal;HPM_P1;HPM_P2
2023/03/24 10:22:32;;;;;;;18.67;6.22;;;;;;;20.77;47.70;100519.44;5111263;27;20357;-47
2023/03/24 10:25:28;;;;;;;20.45;6.03;;;;;;;21.95;44.88;100519.72;5088433;28;20118;-47
2023/03/24 10:28:00;;;;;;;20.33;5.90;;;;;;;22.84;42.93;100516.47;5095876;28;20054;-47
2023/03/24 10:30:31;;;;;;;19.75;5.18;;;;;;;23.37;41.49;100517.00;5090593;28;20089;-48
2023/03/24 10:32:59;;;;;;;17.13;5.15;;;;;;;23.75;40.27;100507.69;5074637;28;20123;-47
2023/03/24 10:35:38;;;;;;;19.70;5.55;;;;;;;23.92;40.10;100520.91;5101363;28;20107;-47
2023/03/24 10:38:18;;;;;;;17.02;5.45;;;;;;;24.06;39.99;100526.28;5107255;28;20097;-47
2023/03/24 10:40:47;;;;;;;21.13;5.88;;;;;;;24.15;39.50;100525.44;5108339;28;20028;-48
2023/03/24 10:43:17;;;;;;;14.68;4.38;;;;;;;24.18;39.40;100533.31;5109560;28;20541;-48
2023/03/24 10:45:49;;;;;;;18.90;5.10;;;;;;;24.25;39.11;100535.97;5109127;28;20024;-47
2023/03/24 10:48:37;;;;;;;16.45;5.97;;;;;;;24.27;38.86;100536.00;5109315;28;20080;-47
2023/03/24 10:51:06;;;;;;;19.38;6.32;;;;;;;24.28;39.12;100538.59;5104307;28;20032;-48
2023/03/24 10:53:33;;;;;;;20.25;6.15;;;;;;;24.22;39.21;100541.22;5106222;28;20106;-49
2023/03/24 10:56:02;;;;;;;20.17;5.78;;;;;;;24.30;39.12;100541.25;5109152;28;20130;-47
2023/03/24 10:58:37;;;;;;;14.77;5.25;;;;;;;24.34;38.72;100535.13;5109278;28;20102;-52
2023/03/24 11:01:29;;;;;;;16.00;5.43;;;;;;;24.34;38.97;100543.00;5104271;28;20123;-48
2023/03/24 11:04:04;;;;;;;15.00;5.13;;;;;;;24.33;38.85;100541.25;5101102;28;20476;-47
2023/03/24 11:06:33;;;;;;;16.02;4.78;;;;;;;24.37;38.97;100545.63;5087967;28;20024;-48
2023/03/24 11:09:18;;;;;;;12.70;4.72;;;;;;;24.43;38.88;100544.78;5108820;28;20411;-48
2023/03/24 11:11:47;;;;;;;17.35;5.38;;;;;;;24.44;38.38;100541.28;5089288;28;20537;-50
2023/03/24 11:14:26;;;;;;;16.75;5.38;;;;;;;24.45;38.47;100550.06;5109236;28;20032;-47
2023/03/24 11:17:10;;;;;;;13.45;4.00;;;;;;;24.43;39.00;100540.44;5108840;28;20027;-48
2023/03/24 11:19:38;;;;;;;15.93;4.72;;;;;;;24.40;39.18;100555.28;5086450;28;20028;-47
2023/03/24 11:22:07;;;;;;;17.70;5.20;;;;;;;24.46;38.43;100554.44;5108905;28;20035;-47
2023/03/24 11:24:37;;;;;;;17.98;5.00;;;;;;;24.43;38.60;100558.78;5108682;28;20425;-48
2023/03/24 11:27:07;;;;;;;14.63;4.45;;;;;;;24.43;38.85;100563.13;5108623;28;20085;-47
2023/03/24 11:29:38;;;;;;;23.73;8.63;;;;;;;24.44;39.14;100578.00;5103836;28;20024;-48
2023/03/24 11:32:13;;;;;;;18.58;6.25;;;;;;;24.48;38.82;100564.03;5085111;28;20035;-48
2023/03/24 11:34:47;;;;;;;15.77;5.57;;;;;;;24.50;38.65;100566.66;5073988;28;20020;-47
2023/03/24 11:37:19;;;;;;;18.30;5.20;;;;;;;24.49;38.93;100562.31;5094911;28;20858;-50
2023/03/24 11:40:14;;;;;;;20.25;6.35;;;;;;;24.55;38.66;100557.06;5093233;28;20047;-47
2023/03/24 11:42:55;;;;;;;18.55;5.05;;;;;;;24.55;38.84;100559.69;5092183;28;20030;-48
2023/03/24 11:45:30;;;;;;;20.83;6.32;;;;;;;24.48;38.54;100579.78;5095048;28;20032;-48
2023/03/24 11:47:58;;;;;;;;;;;;;;;24.58;38.59;100564.97;5077285;28;20465;-48
2023/03/24 11:50:29;;;;;;;23.10;5.45;;;;;;;24.43;38.70;100561.41;5092825;28;19916;-47
2023/03/24 11:53:02;;;;;;;17.80;5.65;;;;;;;24.43;39.06;100566.66;5090718;28;20028;-49
2023/03/24 11:55:59;;;;;;;18.80;5.68;;;;;;;24.38;39.17;100568.38;5076755;28;20028;-48
2023/03/24 11:58:35;;;;;;;23.25;6.70;;;;;;;24.35;39.08;100560.47;5084979;28;20063;-48
2023/03/24 12:01:22;;;;;;;22.27;5.60;;;;;;;24.39;38.82;100564.00;5087301;28;20452;-48
2023/03/24 12:04:28;;;;;;;18.25;5.50;;;;;;;24.42;38.79;100559.66;5091809;28;20020;-47
2023/03/24 12:07:06;;;;;;;14.75;4.50;;;;;;;24.34;38.89;100556.09;5087011;28;20026;-48
2023/03/24 12:09:56;;;;;;;27.08;5.80;;;;;;;24.41;38.97;100577.97;5092994;28;20059;-48
2023/03/24 12:12:44;;;;;;;23.85;5.63;;;;;;;24.45;38.99;100568.41;5061293;28;20116;-47
2023/03/24 12:15:12;;;;;;;20.40;5.78;;;;;;;24.45;38.70;100557.91;5075096;28;20119;-47
2023/03/24 12:17:52;;;;;;;20.02;5.85;;;;;;;24.43;38.85;100569.28;5093598;28;20020;-47
2023/03/24 12:20:42;;;;;;;20.30;5.43;;;;;;;24.39;38.88;100556.16;5069147;28;20047;-47
2023/03/24 12:23:25;;;;;;;18.58;5.22;;;;;;;24.49;38.87;100557.94;5064246;28;20047;-48
2023/03/24 12:26:15;;;;;;;22.40;6.53;;;;;;;24.43;39.07;100571.91;5093990;28;20028;-47
2023/03/24 12:28:44;;;;;;;24.27;6.07;;;;;;;24.42;38.69;100549.16;5049050;28;20033;-48
2023/03/24 12:31:20;;;;;;;23.13;5.45;;;;;;;24.40;38.80;100569.25;5090019;28;20044;-48
2023/03/24 12:34:07;;;;;;;19.88;6.25;;;;;;;24.41;38.96;100570.13;5072268;28;20100;-50
2023/03/24 12:37:03;;;;;;;20.45;6.07;;;;;;;24.41;38.71;100567.50;5078648;28;20032;-48
2023/03/24 12:39:36;;;;;;;20.17;6.43;;;;;;;24.42;38.79;100564.00;5074405;28;20067;-49
2023/03/24 12:42:05;;;;;;;18.85;6.10;;;;;;;24.35;39.07;100576.22;5091927;28;20025;-48
2023/03/24 12:44:45;;;;;;;18.67;6.43;;;;;;;24.36;39.21;100633.03;5092650;28;20020;-48
2023/03/24 12:47:23;;;;;;;17.90;5.70;;;;;;;24.40;39.00;100657.53;5058968;28;20464;-49
2023/03/24 12:50:29;;;;;;;17.80;5.00;;;;;;;24.40;38.81;100634.78;5088875;28;20048;-48
2023/03/24 12:53:16;;;;;;;14.52;4.10;;;;;;;24.35;38.94;100654.84;5080891;28;20111;-51
2023/03/24 12:55:53;;;;;;;16.42;4.22;;;;;;;24.24;38.67;100632.94;5085747;28;20055;-48
2023/03/24 12:58:45;;;;;;;12.43;3.78;;;;;;;24.35;38.44;100651.38;5072500;28;20107;-48
2023/03/24 13:01:38;;;;;;;9.95;3.65;;;;;;;24.38;38.33;100652.25;5090759;28;20047;-48
2023/03/24 13:04:26;;;;;;;13.10;4.28;;;;;;;24.39;38.17;100640.91;5091162;28;20031;-48
2023/03/24 13:07:13;;;;;;;12.57;4.05;;;;;;;24.38;38.53;100641.78;5081590;28;20040;-48
2023/03/24 13:10:05;;;;;;;16.58;3.20;;;;;;;24.38;38.32;100610.31;5071913;28;20024;-48
2023/03/24 13:12:47;;;;;;;13.40;4.13;;;;;;;24.33;38.37;100617.25;5072273;28;20020;-47
2023/03/24 13:15:20;;;;;;;12.48;3.53;;;;;;;24.28;38.28;100590.16;5084169;28;20029;-48
2023/03/24 13:17:55;;;;;;;8.73;2.88;;;;;;;24.32;38.56;100591.06;5075035;28;20043;-48
2023/03/24 13:20:39;;;;;;;10.88;3.97;;;;;;;24.32;38.51;100593.69;5087466;28;20052;-52
2023/03/24 13:23:40;;;;;;;10.65;3.92;;;;;;;24.28;38.28;100587.53;5089816;28;20074;-49
2023/03/24 13:26:15;;;;;;;12.57;3.95;;;;;;;24.31;38.54;100597.16;5074991;28;20139;-48
2023/03/24 13:28:51;;;;;;;;;;;;;;;24.45;38.22;100590.25;5092796;28;20035;-48
2023/03/24 13:31:19;;;;;;;11.13;3.75;;;;;;;24.34;38.84;100603.28;5091478;28;20372;-47
2023/03/24 13:33:48;;;;;;;10.63;3.08;;;;;;;24.32;38.96;100601.53;5092875;28;20019;-48
2023/03/24 13:36:47;;;;;;;10.20;3.20;;;;;;;24.22;39.19;100588.41;5092882;28;20024;-47
2023/03/24 13:40:31;;;;;;;11.05;3.33;;;;;;;24.23;39.23;100607.59;5103691;27;20752;-47
2023/03/24 13:43:01;;;;;;;12.45;4.13;;;;;;;24.16;39.78;100618.94;5106387;28;20498;-47
2023/03/24 13:45:40;;;;;;;15.32;4.45;;;;;;;24.22;39.86;100603.22;5108280;28;20116;-46
2023/03/24 13:48:12;;;;;;;12.15;3.38;;;;;;;24.30;39.73;100593.69;5109925;28;20032;-47
2023/03/24 13:50:53;;;;;;;10.07;3.67;;;;;;;24.26;39.50;100591.91;5103678;28;20020;-47
2023/03/24 13:53:30;;;;;;;14.43;4.07;;;;;;;24.20;39.62;100600.59;5109043;28;20102;-48
2023/03/24 13:55:59;;;;;;;17.67;4.07;;;;;;;24.18;39.73;100591.84;5109783;28;20047;-47
2023/03/24 13:58:44;;;;;;;14.10;4.13;;;;;;;24.25;39.64;100595.38;5107715;28;20028;-48
2023/03/24 14:01:15;;;;;;;15.77;4.85;;;;;;;24.33;40.04;100596.28;5104220;28;20383;-47
2023/03/24 14:03:46;;;;;;;12.98;3.58;;;;;;;24.33;40.12;100598.06;5109375;28;20388;-47
2023/03/24 14:06:16;;;;;;;14.05;3.70;;;;;;;24.32;39.99;100593.69;5109619;28;20885;-48
2023/03/24 14:08:57;;;;;;;13.23;3.70;;;;;;;24.36;39.61;100598.94;5109270;28;20447;-48
2023/03/24 14:11:34;;;;;;;18.92;4.32;;;;;;;24.32;39.75;100606.78;5107191;28;20032;-47
2023/03/24 14:14:23;;;;;;;14.70;4.65;;;;;;;24.45;39.30;100594.63;5107479;28;20465;-47
2023/03/24 14:16:53;;;;;;;15.98;3.83;;;;;;;24.37;39.56;100592.81;5099376;28;20106;-47
2023/03/24 14:19:26;;;;;;;17.67;4.63;;;;;;;24.40;39.67;100590.22;5107859;28;20039;-48
2023/03/24 14:22:01;;;;;;;15.13;4.60;;;;;;;24.42;39.50;100590.22;5108560;28;20114;-48
2023/03/24 14:24:31;;;;;;;15.77;4.07;;;;;;;24.48;39.31;100599.91;5107567;28;20032;-48
2023/03/24 14:27:00;;;;;;;20.70;6.72;;;;;;;24.48;39.43;100597.28;5109006;28;20040;-47
2023/03/24 14:29:49;;;;;;;15.90;6.13;;;;;;;24.50;39.15;100590.25;5106437;28;20106;-46
2023/03/24 14:32:20;;;;;;;14.77;4.78;;;;;;;24.47;39.01;100583.25;5085945;28;20030;-47
2023/03/24 14:34:55;;;;;;;14.10;5.57;;;;;;;24.48;39.11;100579.78;5107362;28;20032;-49
2023/03/24 14:37:24;;;;;;;16.20;4.93;;;;;;;24.43;39.10;100571.91;5103337;28;20032;-47
2023/03/24 14:39:53;;;;;;;17.02;5.63;;;;;;;24.42;38.89;100575.38;5107585;28;20040;-47
2023/03/24 14:42:40;;;;;;;16.17;5.40;;;;;;;24.35;39.04;100568.34;5108597;28;20032;-48
2023/03/24 14:45:46;;;;;;;18.17;5.28;;;;;;;24.41;39.16;100559.63;5108727;28;20042;-48
2023/03/24 14:48:28;;;;;;;19.25;5.85;;;;;;;24.46;38.83;100567.53;5101836;28;20450;-47
2023/03/24 17:48:46;;;;;;;11.03;2.90;;;;;;;20.12;48.42;100659.59;4947616;27;3816553;-47
2023/03/24 17:51:17;;;;;;;9.77;3.08;;;;;;;21.31;45.98;100683.91;5089168;28;20275;-49
2023/03/24 17:53:45;;;;;;;12.50;3.25;;;;;;;22.15;43.95;100681.97;5089606;28;20035;-49
2023/03/24 17:56:13;;;;;;;13.15;3.38;;;;;;;22.75;41.98;100694.22;5089244;28;20064;-48
2023/03/24 17:58:46;;;;;;;9.77;3.55;;;;;;;23.17;40.87;100692.13;5083396;28;20081;-48
2023/03/24 18:01:16;;;;;;;8.50;2.90;;;;;;;23.36;40.38;100688.00;5088176;28;20021;-51
2023/03/24 18:03:44;;;;;;;12.20;3.42;;;;;;;23.52;40.08;100699.53;5088719;28;20031;-48
2023/03/24 18:06:15;;;;;;;13.52;4.03;;;;;;;23.63;39.72;100697.03;5088694;28;20481;-50
2023/03/24 18:08:43;;;;;;;13.63;3.85;;;;;;;23.78;39.47;100706.78;5086087;28;20036;-48
2023/03/24 18:11:13;;;;;;;10.93;3.78;;;;;;;23.81;39.50;100706.81;5081238;28;20473;-48
2023/03/24 18:13:41;;;;;;;10.30;3.80;;;;;;;23.73;39.50;100701.50;5088611;28;20036;-49
2023/03/24 18:16:09;;;;;;;13.82;4.70;;;;;;;23.79;39.09;100701.56;5087202;28;20059;-49
2023/03/24 18:18:37;;;;;;;13.45;3.92;;;;;;;23.88;39.05;100703.41;5082585;28;20039;-48
2023/03/24 18:21:06;;;;;;;13.13;4.75;;;;;;;23.89;39.30;100706.88;5087683;28;20024;-49
2023/03/24 18:23:35;;;;;;;11.55;4.55;;;;;;;23.86;39.27;100706.84;5088560;28;20503;-48
2023/03/24 18:26:07;;;;;;;14.48;4.38;;;;;;;23.80;39.15;100708.56;5088429;28;20085;-47
2023/03/24 18:28:37;;;;;;;14.85;4.20;;;;;;;23.85;39.31;100703.38;5085813;28;20032;-49
2023/03/24 18:31:11;;;;;;;12.18;4.35;;;;;;;23.86;39.11;100710.34;5081874;28;20035;-48
2023/03/24 18:33:41;;;;;;;18.00;4.77;;;;;;;24.01;38.89;100701.78;5082979;28;20036;-47
2023/03/24 18:36:10;;;;;;;11.02;4.05;;;;;;;23.82;39.00;100703.34;5088317;28;20021;-48
2023/03/24 18:38:37;;;;;;;11.85;3.63;;;;;;;23.95;38.58;100712.19;5085309;28;20489;-48
2023/03/24 18:41:07;;;;;;;16.73;4.30;;;;;;;23.93;38.88;100713.91;5087477;28;20388;-50
2023/03/24 18:43:36;;;;;;;13.75;4.18;;;;;;;23.97;38.69;100718.34;5081759;28;20021;-48
2023/03/24 18:46:08;;;;;;;14.27;4.55;;;;;;;23.92;38.98;100722.63;5081178;28;20055;-48
2023/03/24 18:48:37;;;;;;;16.10;4.22;;;;;;;23.97;38.54;100720.97;5084586;28;20051;-48
2023/03/24 18:51:05;;;;;;;21.02;8.23;;;;;;;23.99;38.55;100732.34;5051069;28;20043;-47
2023/03/24 18:53:33;;;;;;;58.83;37.97;;;;;;;23.88;38.50;100715.59;5086201;28;20024;-48
2023/03/24 18:56:01;;;;;;;69.70;46.88;;;;;;;23.94;38.64;100729.63;5086510;28;20024;-48
2023/03/24 18:58:28;;;;;;;80.95;53.35;;;;;;;23.95;38.87;100731.41;5080257;28;20028;-48
2023/03/24 19:00:57;;;;;;;90.85;56.03;;;;;;;23.96;39.06;100738.44;5073387;28;20037;-48
2023/03/24 19:03:25;;;;;;;138.93;95.93;;;;;;;23.92;39.03;100735.72;5053742;28;20089;-49
2023/03/24 19:05:53;;;;;;;136.18;93.47;;;;;;;23.92;39.24;100736.59;5054755;28;20082;-48
2023/03/24 19:08:21;;;;;;;141.80;94.63;;;;;;;23.95;39.50;100736.63;5059162;28;20507;-48
2023/03/24 19:10:49;;;;;;;206.45;147.50;;;;;;;23.99;39.39;100734.06;5046944;28;20497;-48
2023/03/24 19:13:17;;;;;;;197.45;137.38;;;;;;;23.99;39.45;100732.34;5070248;28;20369;-48
2023/03/24 19:15:53;;;;;;;195.00;134.10;;;;;;;24.02;39.38;100741.97;5069573;28;20025;-48
2023/03/24 19:18:22;;;;;;;194.40;132.13;;;;;;;24.01;39.63;100741.09;5064299;28;20058;-48
2023/03/24 19:20:54;;;;;;;190.45;129.18;;;;;;;23.92;39.92;100736.59;5072275;28;20366;-49
2023/03/24 19:23:22;;;;;;;187.50;127.20;;;;;;;23.93;39.89;100746.22;5071949;28;20048;-48
2023/03/24 19:25:53;;;;;;;187.75;123.10;;;;;;;23.91;39.93;100750.56;5073382;28;20101;-48
2023/03/24 19:28:22;;;;;;;180.57;125.05;;;;;;;23.98;40.08;100748.94;5067142;28;20029;-47
2023/03/24 19:30:49;;;;;;;183.80;124.47;;;;;;;24.00;39.78;100760.28;5073452;28;20024;-47
2023/03/24 19:33:16;;;;;;;179.25;123.85;;;;;;;23.90;39.97;100753.19;5063539;28;20051;-47
2023/03/24 19:35:47;;;;;;;187.40;130.13;;;;;;;23.94;40.00;100747.97;5073637;28;20024;-47
2023/03/24 19:38:16;;;;;;;189.25;128.63;;;;;;;23.96;40.20;100750.63;5068294;28;20465;-48
2023/03/24 19:40:43;;;;;;;189.40;127.25;;;;;;;24.00;39.63;100755.03;5068932;28;20046;-48
2023/03/24 19:43:11;;;;;;;201.15;137.07;;;;;;;24.02;39.97;100762.94;5069107;28;20410;-48
2023/03/24 19:45:41;;;;;;;190.00;132.63;;;;;;;24.04;39.89;100762.06;5072481;28;20029;-48
2023/03/24 19:48:10;;;;;;;190.95;131.00;;;;;;;24.08;39.56;100761.25;5067989;28;20067;-49
2023/03/24 19:50:37;;;;;;;193.60;134.00;;;;;;;24.03;40.02;100775.19;5068950;28;20560;-48
2023/03/24 19:53:05;;;;;;;196.15;132.80;;;;;;;24.01;39.89;100780.38;5071362;28;20032;-48
2023/03/24 19:55:32;;;;;;;200.93;140.00;;;;;;;24.04;39.72;100785.66;5071792;28;20059;-48
2023/03/24 19:58:00;;;;;;;205.57;138.85;;;;;;;24.01;40.19;100788.25;5066870;28;20025;-47
2023/03/24 20:00:27;;;;;;;208.18;139.75;;;;;;;24.00;40.14;100785.63;5073061;28;20466;-48
2023/03/24 20:02:54;;;;;;;198.35;137.40;;;;;;;23.95;40.29;100780.31;5072669;28;20548;-47
2023/03/24 20:05:22;;;;;;;198.20;139.00;;;;;;;23.93;40.11;100790.75;5072437;28;20025;-48
2023/03/24 20:07:54;;;;;;;211.18;148.60;;;;;;;23.98;40.19;100798.72;5069416;28;20116;-48
2023/03/24 20:10:22;;;;;;;222.27;145.65;;;;;;;24.06;40.00;100798.78;5070506;28;20456;-48
2023/03/24 20:12:50;;;;;;;210.15;142.65;;;;;;;24.08;39.94;100800.56;5070172;28;20422;-47
2023/03/24 20:15:18;;;;;;;230.98;158.90;;;;;;;24.16;40.11;100799.78;5066885;28;20032;-48
2023/03/24 20:17:46;;;;;;;228.45;159.10;;;;;;;24.15;40.01;100800.63;5070720;28;20115;-47
2023/03/24 20:20:14;;;;;;;210.63;147.15;;;;;;;24.15;39.92;100803.25;5072252;28;20043;-48
2023/03/24 20:22:44;;;;;;;215.23;152.05;;;;;;;24.13;39.92;100803.22;5070936;28;20056;-48
2023/03/24 20:25:14;;;;;;;218.77;152.15;;;;;;;24.15;40.16;100801.50;5071515;28;20025;-48
2023/03/24 20:27:44;;;;;;;210.68;148.43;;;;;;;24.08;39.84;100811.03;5069112;28;20024;-48
2023/03/24 20:30:14;;;;;;;211.40;147.55;;;;;;;24.11;39.97;100799.69;5072960;28;20031;-48
2023/03/24 20:32:42;;;;;;;224.10;147.60;;;;;;;24.15;39.98;100792.78;5074320;28;20023;-48
2023/03/24 20:35:11;;;;;;;229.95;160.50;;;;;;;24.08;40.35;100800.56;5073597;28;20107;-48
